Flight Track Log - Related Links

Times and Time Zones

All times are in EDT time to prevent confusion due to time zone crossing. See the AWE1262 flight status page for this flight to view local times or setup timezone preferences in your user account.

Time Position Orientation Groundspeed Altitude Reporting Facility
EDT Latitude Longitude Course Direction KTS MPH feet Rate Location/Type
Tue 10:17:05 PM 39.8764 -75.2150 37° Northeast 142 163 1,100  Level FAA TRACON SMA TRACON (SMA)
Tue 10:17:25 PM 39.8792 -75.1989 77° East 150 173 1,600 1,756 Climbing FAA TRACON SMA TRACON (SMA)
Tue 10:17:46 PM 39.8831 -75.1764 77° East 171 197 2,300 2,250 Climbing FAA TRACON SMA TRACON (SMA)
Tue 10:18:05 PM 39.8872 -75.1542 76° East 192 221 3,100 2,100 Climbing FAA TRACON SMA TRACON (SMA)
Tue 10:18:26 PM 39.8917 -75.1314 76° East 206 237 3,700 2,100 Climbing FAA TRACON SMA TRACON (SMA)
Tue 10:18:45 PM 39.8961 -75.1075 76° East 218 251 4,500 1,950 Climbing FAA TRACON SMA TRACON (SMA)
Tue 10:19:06 PM 39.9025 -75.0750 76° East 246 283 5,000 750 Climbing FAA TRACON SMA TRACON (SMA)
Tue 10:19:25 PM 39.9081 -75.0486 75° East 270 311 5,000  Level FAA TRACON SMA TRACON (SMA)
Tue 10:19:45 PM 39.9136 -75.0175 77° East 271 312 5,000 600 Level FAA TRACON SMA TRACON (SMA)
Tue 10:20:00 PM 39.7856 -74.7114 105° East  Level FlightAware Approximate
Tue 10:20:05 PM 39.9150 -74.9825 87° East 274 315 5,400  Level FAA TRACON SMA TRACON (SMA)
Tue 10:20:25 PM 39.9019 -74.9525 120° Southeast 279 321 6,500 3,150 Climbing FAA TRACON SMA TRACON (SMA)
Tue 10:20:45 PM 39.8892 -74.9258 122° Southeast 278 320 7,500 3,150 Climbing FAA TRACON SMA TRACON (SMA)
Tue 10:21:00 PM 39.8588 -74.6246 37° Northeast  Level FlightAware Approximate
Tue 10:21:05 PM 39.8761 -74.8964 120° Southeast 291 335 8,600  Level FAA TRACON SMA TRACON (SMA)
Tue 10:21:25 PM 39.8603 -74.8622 121° Southeast 295 339 9,600 2,850 Climbing FAA TRACON SMA TRACON (SMA)
Tue 10:21:45 PM 39.8461 -74.8314 121° Southeast 304 350 10,500 1,756 Climbing FAA TRACON SMA TRACON (SMA)
Tue 10:22:00 PM 39.9449 -74.5551 37° Northeast  Level FlightAware Approximate
Tue 10:22:06 PM 39.8275 -74.7908 121° Southeast 343 395 10,800  Level FAA TRACON SMA TRACON (SMA)
Tue 10:22:25 PM 39.8183 -74.7531 108° East 364 419 11,400 2,850 Climbing FAA TRACON SMA TRACON (SMA)
Tue 10:22:46 PM 39.8217 -74.7164 83° East 336 387 12,700 3,600 Climbing FAA TRACON SMA TRACON (SMA)
Tue 10:23:05 PM 39.8381 -74.6775 61° Northeast 335 386 13,800 3,000 Climbing FAA TRACON SMA TRACON (SMA)
Tue 10:23:26 PM 39.8594 -74.6519 43° Northeast 328 377 14,700 2,700 Climbing FAA TRACON SMA TRACON (SMA)
Tue 10:23:45 PM 39.8817 -74.6303 37° Northeast 332 382 15,600 2,700 Climbing FAA TRACON SMA TRACON (SMA)
Tue 10:24:06 PM 39.9100 -74.6025 37° Northeast 330 380 16,500 2,250 Climbing FAA TRACON SMA TRACON (SMA)
Tue 10:24:25 PM 39.9328 -74.5800 37° Northeast 333 383 17,100 2,000 Climbing FAA TRACON SMA TRACON (SMA)
Tue 10:24:45 PM 39.9558 -74.5569 37° Northeast 337 388 17,800 1,350 Climbing FAA TRACON SMA TRACON (SMA)
Tue 10:25:05 PM 39.9722 -74.5408 37° Northeast 338 389 18,000 1,875 Climbing FAA TRACON SMA TRACON (SMA)
Tue 10:26:53 PM 40.1097 -74.4050 37° Northeast 336 387 21,800 2,371 Climbing New York Center
Tue 10:27:52 PM 40.1892 -74.3275 37° Northeast 347 399 24,600 1,613 Climbing New York Center
Tue 10:28:52 PM 40.2686 -74.2472 38° Northeast 353 406 25,000 198 Climbing New York Center
Tue 10:29:53 PM 40.3461 -74.1694 37° Northeast 353 406 25,000 -464 Level New York Center
Tue 10:31:40 PM 40.4806 -74.0033 43° Northeast 351 404 23,700 -723 Descending Boston Center
Tue 10:32:39 PM 40.5486 -73.9039 48° Northeast 357 411 23,000 -350 Descending Boston Center
Tue 10:33:40 PM 40.6167 -73.8069 47° Northeast 357 411 23,000  Level Boston Center
Tue 10:34:39 PM 40.7147 -73.7789 12° North 346 398 23,000  Level Boston Center
Tue 10:35:39 PM 40.8022 -73.7836 358° North 329 379 23,000 -50 Level Boston Center
Tue 10:36:40 PM 40.9022 -73.7856 359° North 343 395 22,900 -500 Descending Boston Center
Tue 10:37:39 PM 41.0022 -73.7933 357° North 350 403 22,000 -958 Descending Boston Center
Tue 10:38:39 PM 41.0981 -73.7981 358° North 344 396 21,000 -500 Descending Boston Center
Tue 10:39:39 PM 41.1981 -73.8000 359° North 349 402 21,000  Level Boston Center
Tue 10:40:39 PM 41.3022 -73.8078 357° North 355 409 21,000  Level Boston Center
Tue 10:41:40 PM 41.4064 -73.8128 358° North 365 420 21,000  Level Boston Center
Tue 10:42:39 PM 41.5125 -73.8178 358° North 365 420 21,000  Level Boston Center
Tue 10:43:39 PM 41.6189 -73.8203 359° North 370 426 21,000  Level Boston Center
Tue 10:44:39 PM 41.7250 -73.8197 360° North 370 426 21,000  Level Boston Center
Tue 10:45:39 PM 41.8375 -73.8222 359° North 370 426 21,000  Level Boston Center
Tue 10:46:40 PM 41.9439 -73.8189 North 370 426 21,000  Level Boston Center
Tue 10:47:40 PM 42.0481 -73.8183 360° North 370 426 21,000  Level Boston Center
Tue 10:48:39 PM 42.1544 -73.8181 360° North 370 426 21,000 -807 Level Boston Center
Tue 10:49:39 PM 42.2447 -73.7525 28° Northeast 359 413 19,400 -1,000 Descending Boston Center
Tue 10:50:39 PM 42.2961 -73.6303 60° Northeast 337 388 19,000 -200 Descending Boston Center
Tue 10:51:39 PM 42.3369 -73.5131 65° Northeast 357 411 19,000  Level Boston Center
Tue 10:52:40 PM 42.3881 -73.3789 63° Northeast 363 418 19,000  Level Boston Center
Tue 10:53:40 PM 42.4308 -73.2642 63° Northeast 363 418 19,000  Level Boston Center
Tue 10:54:39 PM 42.4817 -73.1269 63° Northeast 363 418 19,000  Level Boston Center
Tue 10:55:39 PM 42.5239 -73.0147 63° Northeast 363 418 19,000  Level Boston Center
Tue 10:56:39 PM 42.5747 -72.8856 62° Northeast 368 423 19,000  Level Boston Center
Tue 10:57:40 PM 42.6231 -72.7589 63° Northeast 373 429 19,000  Level Boston Center
Tue 10:58:39 PM 42.6711 -72.6292 63° Northeast 378 435 19,000 -756 Level Boston Center
Tue 10:59:39 PM 42.7214 -72.4967 63° Northeast 383 441 17,500 -1,850 Descending Boston Center
Tue 11:00:39 PM 42.7650 -72.3722 64° Northeast 383 441 15,300 -2,200 Descending Boston Center
Tue 11:01:39 PM 42.7983 -72.2336 72° East 361 415 13,100 -1,850 Descending Boston Center
Tue 11:02:39 PM 42.7939 -72.1147 93° East 345 397 11,600 -1,400 Descending Boston Center
Tue 11:03:39 PM 42.7831 -71.9847 96° East 328 377 10,300 -1,150 Descending Boston Center
Tue 11:04:39 PM 42.7764 -71.8914 96° East 292 336 9,300 -1,350 Descending Boston Center
Tue 11:05:39 PM 42.7653 -71.7783 98° East 275 316 7,600 -1,500 Descending Boston Center
Tue 11:06:39 PM 42.7606 -71.6878 94° East 275 316 6,300 -1,041 Descending Boston Center
Tue 11:07:40 PM 42.7514 -71.5889 97° East 249 287 5,500 -950 Descending Boston Center
Tue 11:08:39 PM 42.7447 -71.5214 98° East 211 243 4,400 -1,210 Descending Boston Center
Tue 11:09:39 PM 42.7358 -71.4481 99° East 185 213 3,100 -645 Descending Boston Center
Tue 11:10:40 PM 42.7353 -71.3942 91° East 164 189 3,100 -100 Level Boston Center
Tue 11:11:39 PM 42.7725 -71.3597 34° Northeast 137 158 2,900 -203 Descending Boston Center

Login

Don't have an account? Register now (free) for customized features, flight alerts, and more!